Time;durP1;ratioP1;P1;durP2;ratioP2;P2;SDS_P1;SDS_P2;PMS_P1;PMS_P2;Temp;Humidity;BMP_temperature;BMP_pressure;BME280_temperature;BME280_humidity;BME280_pressure;Samples;Min_cycle;Max_cycle;Signal;HPM_P1;HPM_P2
2022/02/08 00:00:49;;;;;;;46.90;19.40;;;;;;;5.24;78.18;98153.02;25091;1316;3067869;-68
2022/02/08 00:03:19;;;;;;;61.00;22.50;;;;;;;5.56;76.56;98154.91;25132;1316;3028794;-71
2022/02/08 00:06:02;;;;;;;49.30;22.50;;;;;;;5.52;76.53;98151.13;25144;1317;3028003;-70
2022/02/08 00:08:31;;;;;;;55.10;21.80;;;;;;;5.44;76.45;98153.89;25081;1317;3055283;-71
2022/02/08 00:11:00;;;;;;;55.80;23.50;;;;;;;5.20;77.27;98154.60;25090;1316;3026489;-68
2022/02/08 00:13:29;;;;;;;45.50;24.20;;;;;;;4.98;78.09;98153.30;25032;1316;3051852;-69
2022/02/08 00:16:00;;;;;;;56.80;23.60;;;;;;;4.84;78.82;98149.77;25065;1317;3026576;-74
2022/02/08 00:18:29;;;;;;;52.70;19.40;;;;;;;4.70;79.72;98149.92;25081;1316;3028883;-72
2022/02/08 00:20:59;;;;;;;46.00;20.80;;;;;;;5.23;78.35;98146.29;25107;1316;3054563;-70
2022/02/08 00:23:28;;;;;;;49.30;20.80;;;;;;;5.65;76.50;98144.08;25105;1318;3026535;-71
2022/02/08 00:25:57;;;;;;;52.40;22.50;;;;;;;5.82;75.56;98137.88;25079;1315;3026481;-70
2022/02/08 00:28:26;;;;;;;46.90;23.60;;;;;;;5.53;76.35;98141.36;25100;1317;3051973;-71
2022/02/08 00:30:55;;;;;;;54.40;23.40;;;;;;;5.41;76.93;98139.32;25109;1316;3026118;-74
2022/02/08 00:33:23;;;;;;;53.20;23.00;;;;;;;5.33;77.13;98139.41;25132;1316;3049001;-70
2022/02/08 00:35:53;;;;;;;61.70;24.40;;;;;;;5.28;77.53;98140.60;25104;1317;3026359;-69
2022/02/08 00:38:22;;;;;;;45.90;20.80;;;;;;;5.19;78.14;98143.25;25086;1317;3067970;-70
2022/02/08 00:40:55;;;;;;;45.90;21.10;;;;;;;5.80;76.85;98139.20;25049;1316;3027044;-71
2022/02/08 00:43:29;;;;;;;45.80;20.40;;;;;;;6.42;74.45;98142.47;25083;1316;3050933;-71
2022/02/08 00:46:13;;;;;;;52.20;22.50;;;;;;;6.45;73.64;98141.91;25131;1316;3071701;-69
2022/02/08 00:48:48;;;;;;;53.10;24.20;;;;;;;6.29;73.98;98148.98;25092;1317;3051771;-70
2022/02/08 00:51:17;;;;;;;52.60;25.40;;;;;;;5.90;74.87;98151.44;25080;1317;3052796;-71
2022/02/08 00:53:47;;;;;;;58.20;25.40;;;;;;;5.81;75.38;98156.48;25021;1319;3026389;-71
2022/02/08 00:56:15;;;;;;;56.80;24.60;;;;;;;5.68;75.57;98160.42;25068;1316;3051428;-71
2022/02/08 00:58:45;;;;;;;57.70;26.50;;;;;;;5.45;76.61;98167.40;25078;1317;3026346;-70
2022/02/08 01:01:14;;;;;;;54.30;22.30;;;;;;;5.28;77.48;98169.08;25131;1318;3026744;-69
2022/02/08 01:03:43;;;;;;;57.40;22.60;;;;;;;5.52;77.41;98169.05;24998;1317;3050875;-71
2022/02/08 01:06:12;;;;;;;57.70;22.80;;;;;;;6.00;75.85;98168.02;25107;1317;3026759;-70
2022/02/08 01:08:43;;;;;;;66.90;23.20;;;;;;;6.21;74.92;98163.27;25045;1317;3071688;-70
2022/02/08 01:11:12;;;;;;;62.00;25.60;;;;;;;5.89;75.45;98163.83;25141;1317;3027558;-72
2022/02/08 01:13:44;;;;;;;57.90;26.60;;;;;;;5.68;76.48;98165.12;25036;1317;3051179;-71
2022/02/08 01:16:14;;;;;;;65.10;26.50;;;;;;;5.49;77.26;98159.64;24970;1317;3027482;-72
2022/02/08 01:18:45;;;;;;;75.60;30.00;;;;;;;5.24;78.32;98160.45;25100;1317;3026767;-70
2022/02/08 01:21:14;;;;;;;58.70;23.90;;;;;;;5.21;78.82;98158.20;25094;1317;3027573;-71
2022/02/08 01:23:44;;;;;;;56.90;23.00;;;;;;;5.69;77.48;98155.83;25087;1316;3026447;-72
2022/02/08 01:26:16;;;;;;;53.00;23.00;;;;;;;6.21;75.69;98152.45;25070;1317;3026796;-70
2022/02/08 01:28:59;;;;;;;49.00;24.40;;;;;;;6.24;75.06;98154.34;25105;1317;3052114;-69
2022/02/08 01:31:29;;;;;;;47.00;23.50;;;;;;;6.02;75.52;98148.09;25126;1317;3052205;-69
2022/02/08 01:44:56;;;;;;;70.20;27.00;;;;;;;6.00;76.17;98146.10;25056;1318;3071066;-70
2022/02/08 01:47:43;;;;;;;80.60;28.70;;;;;;;6.42;74.61;98142.60;25030;1317;3048267;-71
2022/02/08 01:50:14;;;;;;;61.60;26.60;;;;;;;6.33;74.23;98140.91;25064;1317;3052308;-72
2022/02/08 01:52:45;;;;;;;69.40;29.00;;;;;;;6.07;75.20;98144.15;25045;1317;3053375;-69
2022/02/08 01:55:18;;;;;;;78.30;29.20;;;;;;;5.92;75.79;98143.50;25144;1317;3026163;-72
2022/02/08 01:57:47;;;;;;;66.40;27.10;;;;;;;5.81;75.94;98144.85;25048;1317;3028613;-71
2022/02/08 02:00:17;;;;;;;66.50;28.40;;;;;;;5.58;76.55;98153.59;25131;1317;3052529;-70
2022/02/08 02:02:48;;;;;;;55.90;24.80;;;;;;;5.50;77.12;98155.95;25103;1317;3027175;-72
2022/02/08 02:05:22;;;;;;;64.70;25.10;;;;;;;6.03;75.86;98151.18;25044;1317;3050290;-71
2022/02/08 02:07:52;;;;;;;61.30;24.10;;;;;;;6.46;74.00;98148.63;25059;1317;3026287;-72
2022/02/08 02:10:24;;;;;;;59.00;24.00;;;;;;;6.43;73.89;98148.48;25114;1317;3027360;-71
2022/02/08 02:13:00;;;;;;;51.50;24.50;;;;;;;6.06;74.83;98153.75;25094;1317;3026544;-70
2022/02/08 02:15:34;;;;;;;58.60;27.00;;;;;;;6.03;74.88;98155.88;25118;1317;3049536;-71
2022/02/08 02:18:03;;;;;;;54.80;23.70;;;;;;;5.72;75.77;98163.83;25098;1317;3029663;-72
2022/02/08 02:20:33;;;;;;;48.30;23.60;;;;;;;5.60;76.22;98165.77;25006;1317;3027260;-70
2022/02/08 02:23:03;;;;;;;54.10;25.40;;;;;;;5.39;77.05;98165.51;24998;1317;3026284;-68
2022/02/08 02:25:33;;;;;;;46.10;21.00;;;;;;;5.30;77.63;98164.06;25046;1317;3026636;-69
2022/02/08 02:28:04;;;;;;;44.30;20.10;;;;;;;5.84;76.66;98164.51;25007;1317;3052079;-71
2022/02/08 02:30:34;;;;;;;42.20;20.80;;;;;;;6.44;74.72;98162.52;25089;1317;3026360;-71
2022/02/08 02:33:07;;;;;;;46.30;21.40;;;;;;;6.50;73.80;98161.24;25081;1317;3028194;-69
2022/02/08 02:35:36;;;;;;;42.30;21.20;;;;;;;6.22;74.13;98163.19;25059;1317;3028221;-71
2022/02/08 02:38:06;;;;;;;40.80;22.00;;;;;;;5.93;75.48;98168.77;25071;1317;3026954;-70
2022/02/08 02:40:44;;;;;;;43.50;23.10;;;;;;;5.81;75.79;98167.13;25177;1317;3026593;-71
2022/02/08 02:43:15;;;;;;;48.90;23.20;;;;;;;5.58;76.65;98172.00;25088;1317;3049298;-71
2022/02/08 02:45:44;;;;;;;44.30;21.00;;;;;;;5.34;77.50;98174.29;25161;1317;3027227;-72
2022/02/08 02:48:16;;;;;;;43.20;20.60;;;;;;;5.54;77.72;98172.73;25107;1318;3029836;-70
2022/02/08 02:50:56;;;;;;;45.50;19.60;;;;;;;5.93;76.28;98171.61;25170;1317;3056013;-70
2022/02/08 02:53:31;;;;;;;49.20;23.60;;;;;;;6.10;75.74;98163.10;25051;1317;3050322;-71
2022/02/08 02:56:01;;;;;;;45.20;22.30;;;;;;;5.87;75.78;98168.10;25070;1317;3028919;-71
2022/02/08 02:58:32;;;;;;;52.70;24.80;;;;;;;5.69;76.67;98172.55;25038;1317;3026513;-70
2022/02/08 03:01:14;;;;;;;44.80;22.90;;;;;;;5.63;76.95;98175.52;25088;1317;3048778;-68
2022/02/08 03:17:55;;;;;;;41.30;20.70;;;;;;;6.13;74.35;98172.27;25053;1317;3055416;-70
2022/02/08 03:20:24;;;;;;;44.00;21.70;;;;;;;5.95;74.86;98174.59;25089;1317;3055873;-68
2022/02/08 03:22:57;;;;;;;44.70;23.00;;;;;;;5.68;75.43;98181.10;24911;1318;3026990;-72
2022/02/08 03:25:27;;;;;;;43.50;22.60;;;;;;;5.52;76.28;98178.73;25137;1317;3053185;-70
2022/02/08 03:27:57;;;;;;;37.50;17.60;;;;;;;5.39;76.85;98177.09;25070;1317;3027098;-72
2022/02/08 03:30:27;;;;;;;33.20;16.90;;;;;;;5.87;75.72;98176.82;25074;1318;3026375;-70
2022/02/08 03:32:57;;;;;;;30.40;16.60;;;;;;;6.39;73.95;98175.55;25083;1318;3027652;-71
2022/02/08 03:35:31;;;;;;;27.20;15.20;;;;;;;6.35;73.47;98175.09;25099;1317;3052843;-71
2022/02/08 03:38:04;;;;;;;23.10;13.60;;;;;;;5.79;74.79;98178.73;25037;1317;3026589;-72
2022/02/08 03:45:54;;;;;;;26.40;15.10;;;;;;;5.34;76.97;98196.01;25109;1316;3052522;-69
2022/02/08 03:48:26;;;;;;;26.90;15.10;;;;;;;5.17;77.95;98199.04;25045;1317;3026366;-69
2022/02/08 03:51:08;;;;;;;23.30;12.10;;;;;;;5.18;78.36;98196.95;25045;1317;3051561;-72
2022/02/08 03:53:45;;;;;;;23.70;11.90;;;;;;;5.91;76.48;98197.62;25083;1317;3053184;-73
2022/02/08 03:56:16;;;;;;;24.70;12.50;;;;;;;6.44;74.17;98197.27;25105;1317;3051922;-70
2022/02/08 03:58:45;;;;;;;24.00;12.40;;;;;;;6.48;73.74;98193.73;25097;1317;3026716;-70
2022/02/08 04:03:59;;;;;;;26.80;14.90;;;;;;;6.06;74.17;98200.35;25036;1318;3052907;-68
2022/02/08 04:06:28;;;;;;;29.10;16.30;;;;;;;5.70;75.19;98204.27;25102;1317;3067943;-69
2022/02/08 04:08:59;;;;;;;30.30;16.40;;;;;;;5.58;75.67;98203.93;25091;1317;3026896;-72
2022/02/08 04:11:33;;;;;;;37.80;19.30;;;;;;;5.41;76.13;98208.27;25069;1318;3051553;-72
2022/02/08 04:14:21;;;;;;;26.90;15.20;;;;;;;5.24;77.03;98211.66;25070;1317;3069338;-72
2022/02/08 04:16:55;;;;;;;27.60;15.30;;;;;;;5.73;75.87;98205.61;25094;1317;3051245;-72
2022/02/08 04:19:32;;;;;;;30.10;15.80;;;;;;;6.20;74.39;98205.91;25075;1317;3026205;-72
2022/02/08 04:33:30;;;;;;;38.50;19.70;;;;;;;4.98;78.39;98221.48;25104;1317;3054006;-72
2022/02/08 04:36:12;;;;;;;32.30;16.80;;;;;;;4.90;79.10;98217.98;25078;1317;3069455;-72
2022/02/08 04:41:30;;;;;;;26.70;15.00;;;;;;;6.10;75.09;98209.69;25107;1317;3051054;-73
2022/02/08 04:47:48;;;;;;;43.20;26.90;;;;;;;6.07;75.01;98208.75;24998;1319;3054721;-72
2022/02/08 04:50:18;;;;;;;49.70;21.00;;;;;;;6.13;74.03;98212.08;25090;1319;3053380;-73
2022/02/08 04:52:51;;;;;;;36.80;20.30;;;;;;;5.66;75.58;98220.86;25103;1319;3026650;-72
2022/02/08 04:58:19;;;;;;;28.50;13.80;;;;;;;5.25;77.57;98223.80;25016;1316;3172483;-69
2022/02/08 05:01:04;;;;;;;31.20;17.10;;;;;;;5.94;76.34;98218.98;25196;1316;3051279;-70
2022/02/08 05:47:42;;;;;;;37.40;20.00;;;;;;;6.27;74.40;98259.71;25107;1313;3026587;-73
2022/02/08 05:51:00;;;;;;;30.70;17.60;;;;;;;6.43;74.15;98266.04;25119;1315;3026943;-72
2022/02/08 05:55:36;;;;;;;36.70;17.00;;;;;;;5.89;75.10;98273.33;25120;1315;3027949;-74
2022/02/08 05:58:05;;;;;;;47.10;18.70;;;;;;;5.73;75.84;98274.25;25186;1315;3026632;-74
2022/02/08 06:00:37;;;;;;;44.30;21.20;;;;;;;5.57;76.31;98274.34;25132;1315;3028620;-71
2022/02/08 06:03:16;;;;;;;49.70;23.10;;;;;;;5.43;76.86;98274.29;25122;1315;3052192;-73
2022/02/08 06:05:53;;;;;;;38.30;19.10;;;;;;;5.41;77.49;98274.39;25101;1315;3056444;-73
2022/02/08 06:08:29;;;;;;;40.10;20.20;;;;;;;5.92;75.89;98272.98;25072;1316;3052640;-71
2022/02/08 06:11:15;;;;;;;37.50;19.40;;;;;;;6.35;74.22;98277.86;25115;1315;3054975;-72
2022/02/08 06:13:44;;;;;;;34.60;19.20;;;;;;;6.41;73.91;98284.79;25118;1315;3026470;-73
2022/02/08 06:16:18;;;;;;;37.50;17.50;;;;;;;6.31;74.04;98291.84;25119;1315;3026647;-73
2022/02/08 06:18:48;;;;;;;36.40;19.90;;;;;;;6.03;74.72;98289.02;25107;1315;3048039;-72
2022/02/08 06:21:17;;;;;;;36.60;19.20;;;;;;;5.83;75.47;98293.98;25092;1315;3026741;-73
2022/02/08 06:23:46;;;;;;;43.10;20.60;;;;;;;5.76;75.96;98299.63;25084;1316;3072280;-73
2022/02/08 06:26:16;;;;;;;49.60;21.40;;;;;;;5.68;76.20;98302.56;25085;1318;3026295;-73
2022/02/08 06:28:48;;;;;;;48.90;22.20;;;;;;;5.53;76.50;98306.40;25124;1315;3049059;-72
2022/02/08 06:31:17;;;;;;;31.90;15.70;;;;;;;5.54;76.88;98312.23;25088;1318;3027267;-72
2022/02/08 06:33:47;;;;;;;39.60;18.30;;;;;;;6.14;75.26;98312.85;25097;1315;3027202;-74
2022/02/08 06:36:16;;;;;;;27.40;14.70;;;;;;;6.88;73.60;98315.74;25153;1315;3029484;-73
2022/02/08 06:38:44;;;;;;;31.90;16.30;;;;;;;7.09;72.22;98314.45;25127;1315;3068289;-73
2022/02/08 06:41:13;;;;;;;26.50;15.40;;;;;;;6.95;71.74;98317.95;25141;1317;3027864;-71
2022/02/08 06:43:42;;;;;;;31.90;15.80;;;;;;;6.75;72.04;98318.52;25122;1313;3049692;-75
2022/02/08 06:46:11;;;;;;;31.60;14.40;;;;;;;6.55;72.59;98326.02;25120;1315;3026452;-72
2022/02/08 06:48:40;;;;;;;27.30;14.70;;;;;;;6.33;73.46;98328.04;25193;1313;3053580;-76
2022/02/08 06:51:09;;;;;;;45.70;18.30;;;;;;;6.18;74.20;98327.04;25120;1313;3026770;-73
2022/02/08 06:53:38;;;;;;;45.90;15.80;;;;;;;6.03;74.45;98334.41;25164;1313;3049166;-73
2022/02/08 06:56:07;;;;;;;35.90;14.80;;;;;;;5.86;75.01;98333.97;25112;1313;3026792;-74
2022/02/08 06:58:48;;;;;;;26.90;14.00;;;;;;;5.78;75.56;98333.92;25162;1313;3057623;-73
2022/02/08 07:01:19;;;;;;;35.10;17.90;;;;;;;6.32;74.36;98333.33;25123;1313;3049499;-72
2022/02/08 07:03:49;;;;;;;37.50;16.60;;;;;;;6.87;72.75;98333.59;25168;1313;3026421;-71
2022/02/08 07:06:19;;;;;;;31.70;14.30;;;;;;;6.92;72.11;98333.27;25161;1313;3030628;-75
2022/02/08 07:08:58;;;;;;;34.40;17.50;;;;;;;6.79;72.41;98331.13;25185;1313;3071374;-74
2022/02/08 07:11:27;;;;;;;31.90;17.10;;;;;;;6.63;72.82;98337.50;25115;1313;3026943;-75
2022/02/08 07:13:58;;;;;;;46.40;19.90;;;;;;;6.46;73.48;98341.75;25180;1313;3049759;-72
2022/02/08 07:16:29;;;;;;;35.10;18.60;;;;;;;6.37;73.78;98340.20;25167;1313;3026325;-73
2022/02/08 07:18:58;;;;;;;39.30;19.10;;;;;;;6.25;73.91;98342.11;25197;1313;3026728;-74
2022/02/08 07:21:27;;;;;;;43.60;20.80;;;;;;;6.16;74.75;98340.89;25131;1313;3049972;-74
2022/02/08 07:23:56;;;;;;;43.80;20.80;;;;;;;6.09;75.04;98342.73;25139;1316;3028977;-73
2022/02/08 07:26:27;;;;;;;36.00;16.50;;;;;;;6.09;75.27;98347.62;25094;1313;3055843;-75
2022/02/08 07:28:56;;;;;;;42.50;19.20;;;;;;;6.66;73.93;98341.69;25180;1316;3027247;-75
2022/02/08 07:31:34;;;;;;;41.40;18.60;;;;;;;7.20;71.73;98341.73;25108;1316;3051293;-75
2022/02/08 07:34:17;;;;;;;42.30;20.10;;;;;;;7.28;70.93;98342.29;25148;1316;3051946;-74
2022/02/08 07:39:25;;;;;;;49.70;20.70;;;;;;;7.04;71.38;98346.98;25112;1316;3026055;-71
2022/02/08 07:41:54;;;;;;;58.20;25.70;;;;;;;6.76;72.28;98359.83;25176;1316;3049516;-72
2022/02/08 07:44:23;;;;;;;54.40;25.60;;;;;;;6.64;72.83;98357.16;25127;1316;3026739;-69
2022/02/08 07:46:57;;;;;;;;;;;;;;;6.47;72.94;98367.20;25188;1316;3068551;-73
2022/02/08 07:49:26;;;;;;;53.00;25.30;;;;;;;6.30;73.91;98371.71;25134;1315;3027514;-70
2022/02/08 07:51:56;;;;;;;57.60;25.00;;;;;;;6.24;74.52;98372.46;25141;1316;3051032;-75
2022/02/08 07:54:24;;;;;;;54.40;23.30;;;;;;;6.20;74.70;98371.63;25116;1316;3028818;-75
2022/02/08 07:56:53;;;;;;;44.80;20.00;;;;;;;6.17;74.82;98367.98;25153;1316;3051037;-78
2022/02/08 07:59:22;;;;;;;42.50;19.40;;;;;;;6.69;73.55;98366.20;25231;1316;3026609;-75
2022/02/08 08:01:51;;;;;;;41.50;18.90;;;;;;;7.25;71.33;98364.11;25216;1314;3049769;-68
2022/02/08 08:04:20;;;;;;;44.20;20.30;;;;;;;7.34;70.81;98364.52;25280;1316;3026981;-73
2022/02/08 08:06:49;;;;;;;54.50;22.90;;;;;;;7.29;70.82;98369.41;25132;1316;3058426;-73
2022/02/08 08:09:22;;;;;;;56.70;24.60;;;;;;;7.13;71.56;98376.00;25115;1316;3026478;-74
2022/02/08 08:11:52;;;;;;;52.30;25.10;;;;;;;6.98;72.22;98380.27;25133;1316;3026659;-66
2022/02/08 08:14:24;;;;;;;55.10;25.80;;;;;;;6.90;72.65;98385.77;25145;1316;3026758;-73
2022/02/08 08:17:23;;;;;;;60.50;26.00;;;;;;;6.80;72.86;98389.91;25136;1316;3026789;-77
2022/02/08 08:19:47;;;;;;;75.70;32.80;;;;;;;6.66;73.06;98393.89;25207;1313;3052006;-73
2022/02/08 08:22:19;;;;;;;79.00;33.00;;;;;;;6.51;73.65;98400.19;25498;1313;3026526;-74
2022/02/08 08:24:49;;;;;;;72.30;31.80;;;;;;;6.45;73.98;98394.45;25196;1313;3030422;-74
2022/02/08 08:27:20;;;;;;;53.00;23.20;;;;;;;6.42;74.10;98392.77;25150;1315;3028112;-76
2022/02/08 08:29:48;;;;;;;57.50;25.10;;;;;;;6.89;72.84;98390.03;25227;1313;3027115;-75
2022/02/08 08:32:18;;;;;;;60.60;25.10;;;;;;;7.47;71.08;98386.17;25149;1313;3026521;-75
2022/02/08 08:34:47;;;;;;;60.50;25.60;;;;;;;7.51;70.27;98385.63;25137;1313;3030199;-75
2022/02/08 08:37:16;;;;;;;63.30;27.60;;;;;;;7.31;70.89;98394.17;25187;1313;3050739;-72
2022/02/08 08:39:48;;;;;;;64.80;27.90;;;;;;;7.20;71.40;98395.23;25198;1313;3026521;-76
2022/02/08 08:50:14;;;;;;;68.80;30.80;;;;;;;6.72;73.93;98401.51;25166;1313;3059303;-73
2022/02/08 08:52:46;;;;;;;70.00;31.20;;;;;;;6.64;74.52;98404.13;25281;1313;3052092;-75
2022/02/08 08:55:17;;;;;;;54.50;24.10;;;;;;;6.64;74.79;98401.84;25995;1313;3026997;-75
2022/02/08 08:57:47;;;;;;;62.70;26.40;;;;;;;7.12;73.20;98403.89;25919;1313;3027206;-73
2022/02/08 09:00:16;;;;;;;58.10;26.30;;;;;;;7.65;70.84;98400.31;25642;1313;3029248;-74
2022/02/08 09:02:45;;;;;;;55.90;26.40;;;;;;;7.77;70.22;98399.58;25208;1313;3052021;-69
2022/02/08 09:05:15;;;;;;;61.80;26.50;;;;;;;7.64;70.29;98405.32;25183;1313;3026427;-71
2022/02/08 09:07:45;;;;;;;66.10;27.80;;;;;;;7.44;70.57;98403.94;25186;1313;3049886;-74
2022/02/08 09:10:18;;;;;;;58.90;27.60;;;;;;;7.28;71.41;98403.41;25218;1313;3027990;-73
2022/02/08 09:14:05;;;;;;;71.70;31.00;;;;;;;7.14;73.11;98401.73;31917;1312;3026174;-70
2022/02/08 09:16:43;;;;;;;89.20;44.00;;;;;;;7.49;73.10;98402.06;25118;1313;3051993;-63
2022/02/08 09:30:00;;;;;;;61.30;30.30;;;;;;;8.16;69.35;98399.96;25186;1312;3026792;-67
2022/02/08 09:32:42;;;;;;;60.50;30.30;;;;;;;8.15;69.16;98401.59;25223;1313;3049460;-71
2022/02/08 09:35:12;;;;;;;63.70;30.80;;;;;;;8.01;68.64;98403.76;25200;1313;3056353;-74
2022/02/08 09:37:41;;;;;;;73.30;33.10;;;;;;;7.77;70.08;98403.41;25147;1313;3026875;-73
2022/02/08 09:40:15;;;;;;;69.90;32.40;;;;;;;7.63;70.58;98406.23;25320;1312;3026852;-70
2022/02/08 09:42:44;;;;;;;59.20;31.80;;;;;;;7.55;70.72;98403.63;25368;1313;3026377;-65
2022/02/08 09:45:17;;;;;;;63.50;31.00;;;;;;;7.53;70.60;98401.67;25187;1313;3028575;-65
2022/02/08 09:50:27;;;;;;;91.40;39.30;;;;;;;7.26;70.93;98403.72;25178;1313;3049127;-73
2022/02/08 09:52:58;;;;;;;87.00;39.30;;;;;;;7.13;71.39;98401.77;25300;1312;3026049;-74
2022/02/08 09:55:30;;;;;;;107.50;47.80;;;;;;;7.02;72.01;98403.35;25246;1311;3026593;-73
2022/02/08 09:57:59;;;;;;;111.00;45.00;;;;;;;6.91;72.11;98405.08;25216;1311;3027419;-67
2022/02/08 10:00:28;;;;;;;88.90;37.30;;;;;;;6.82;73.50;98400.25;25098;1313;3026370;-67
2022/02/08 10:03:11;;;;;;;87.40;38.60;;;;;;;7.46;71.83;98402.09;25194;1313;3053557;-70
2022/02/08 10:05:46;;;;;;;102.90;42.20;;;;;;;7.97;69.40;98399.81;25153;1313;3059353;-64
2022/02/08 10:08:15;;;;;;;95.30;41.20;;;;;;;7.90;69.57;98399.94;25219;1312;3049161;-71
2022/02/08 10:10:44;;;;;;;101.90;44.20;;;;;;;7.83;70.09;98404.55;25146;1312;3026700;-70
2022/02/08 10:13:59;;;;;;;85.90;38.70;;;;;;;7.53;70.24;98404.26;25217;1313;3058216;-72
2022/02/08 10:20:08;;;;;;;66.60;31.20;;;;;;;6.40;73.54;98401.56;25235;1312;3051910;-70
2022/02/08 10:22:14;;;;;;;60.60;28.30;;;;;;;6.24;74.40;98401.31;25138;1313;3051148;-67
2022/02/08 10:24:47;;;;;;;62.90;28.60;;;;;;;6.15;74.88;98406.38;25116;1311;3026991;-67
2022/02/08 10:27:27;;;;;;;53.40;27.10;;;;;;;6.03;75.10;98409.66;25124;1313;3052998;-68
2022/02/08 10:30:42;;;;;;;49.80;24.30;;;;;;;5.92;76.04;98408.71;25113;1313;3054221;-69
2022/02/08 10:38:43;;;;;;;36.80;19.80;;;;;;;6.96;72.43;98399.36;25176;1312;3054959;-68
2022/02/08 10:41:19;;;;;;;46.10;21.60;;;;;;;6.54;73.41;98404.39;25166;1313;3054780;-70
2022/02/08 10:43:58;;;;;;;43.50;21.10;;;;;;;6.02;75.25;98409.20;25212;1312;3026375;-68
2022/02/08 10:46:27;;;;;;;37.60;18.70;;;;;;;5.64;76.58;98415.38;25169;1313;3048290;-68
2022/02/08 10:49:15;;;;;;;38.80;18.80;;;;;;;5.34;77.40;98419.33;25198;1313;3026299;-69
2022/02/08 10:51:49;;;;;;;39.10;19.80;;;;;;;5.14;78.27;98418.34;25190;1313;3059259;-66
2022/02/08 10:54:33;;;;;;;25.90;14.30;;;;;;;5.04;78.81;98418.52;25176;1313;3049613;-69
2022/02/08 10:57:11;;;;;;;32.50;18.20;;;;;;;5.78;77.11;98408.14;25174;1313;3053307;-67
2022/02/08 10:59:51;;;;;;;28.80;16.20;;;;;;;6.13;75.46;98409.77;25054;1313;3050309;-67
2022/02/08 11:02:26;;;;;;;32.00;17.20;;;;;;;5.96;75.49;98407.30;25223;1312;3067646;-62
2022/02/08 11:12:17;;;;;;;43.40;19.90;;;;;;;5.22;77.93;98427.76;31768;1319;3026504;-75
2022/02/08 11:18:00;;;;;;;44.30;19.60;;;;;;;5.56;77.39;98429.16;25013;1322;3052424;-78
2022/02/08 11:23:00;;;;;;;46.80;21.50;;;;;;;5.38;77.22;98437.84;24978;1322;3049533;-75
2022/02/08 11:26:08;;;;;;;50.10;24.00;;;;;;;5.10;78.30;98439.73;18747;1319;3055478;-77
2022/02/08 11:28:44;;;;;;;47.70;25.00;;;;;;;4.97;79.03;98442.85;25126;1319;3050794;-76
2022/02/08 11:31:35;;;;;;;39.30;20.20;;;;;;;4.87;79.31;98444.90;24956;1319;3068394;-77
2022/02/08 11:48:11;;;;;;;61.50;27.90;;;;;;;4.79;79.22;98454.36;25191;1315;3053210;-76
2022/02/08 12:32:05;;;;;;;46.00;24.40;;;;;;;4.75;77.74;98509.25;25139;1317;3026587;-76
2022/02/08 14:11:14;;;;;;;25.30;16.10;;;;;;;3.33;77.99;98639.06;25227;1316;3026779;-65
2022/02/08 14:21:52;;;;;;;25.30;14.40;;;;;;;2.50;81.00;98665.02;25143;1316;3051379;-72
2022/02/08 14:29:57;;;;;;;18.90;11.30;;;;;;;2.92;78.98;98670.42;25177;1316;3071893;-65
2022/02/08 14:32:43;;;;;;;20.90;12.80;;;;;;;2.78;79.85;98674.63;25200;1316;3027040;-74
2022/02/08 14:35:37;;;;;;;22.30;13.70;;;;;;;2.75;79.99;98674.74;25168;1316;3052635;-77
2022/02/08 15:08:17;;;;;;;22.30;13.00;;;;;;;2.70;79.38;98720.58;25167;1316;3055244;-70
2022/02/08 15:10:50;;;;;;;25.00;14.50;;;;;;;2.43;80.16;98726.84;25165;1316;3050867;-75
2022/02/08 15:13:24;;;;;;;25.90;15.20;;;;;;;2.18;81.17;98731.95;25211;1315;3026196;-72
2022/02/08 15:18:38;;;;;;;20.70;13.20;;;;;;;2.70;79.85;98729.92;25172;1315;3026101;-76
2022/02/08 15:21:11;;;;;;;23.50;14.20;;;;;;;2.93;78.51;98726.94;25134;1316;3026304;-74
2022/02/08 15:23:40;;;;;;;17.90;12.10;;;;;;;2.82;78.42;98726.31;25224;1315;3059315;-72
2022/02/08 15:26:09;;;;;;;22.90;14.10;;;;;;;2.52;79.10;98735.14;25158;1315;3026306;-80
2022/02/08 15:28:40;;;;;;;20.70;13.60;;;;;;;2.28;79.96;98736.77;25133;1316;3054173;-75
2022/02/08 15:31:09;;;;;;;20.60;13.40;;;;;;;2.19;80.59;98736.59;25202;1315;3026426;-77
2022/02/08 15:33:38;;;;;;;18.30;10.90;;;;;;;1.90;81.26;98742.16;25174;1316;3027275;-78
2022/02/08 15:36:07;;;;;;;21.70;13.60;;;;;;;2.33;80.67;98737.79;25161;1315;3051908;-77
2022/02/08 15:38:40;;;;;;;25.20;12.90;;;;;;;2.65;79.51;98742.08;25173;1315;3027575;-77
2022/02/08 15:41:12;;;;;;;22.50;14.00;;;;;;;2.51;79.34;98737.24;25148;1316;3027951;-77
2022/02/08 15:43:41;;;;;;;24.50;15.00;;;;;;;2.39;79.69;98749.28;25171;1316;3026543;-79
2022/02/08 15:46:20;;;;;;;25.40;16.10;;;;;;;2.28;80.02;98748.55;25232;1315;3026969;-77
2022/02/08 15:48:54;;;;;;;27.00;17.10;;;;;;;2.30;80.10;98748.28;25163;1315;3052156;-77
2022/02/08 15:56:54;;;;;;;18.80;11.80;;;;;;;2.94;77.59;98770.30;25157;1315;3054246;-77
2022/02/08 16:07:37;;;;;;;25.20;15.20;;;;;;;2.19;79.78;98779.60;25166;1315;3048548;-78
2022/02/08 16:10:15;;;;;;;23.50;13.80;;;;;;;2.10;80.54;98785.84;25228;1315;3053219;-78
2022/02/08 16:13:07;;;;;;;23.30;13.80;;;;;;;2.66;78.78;98783.17;25191;1316;3053421;-79
2022/02/08 16:56:53;;;;;;;23.80;14.10;;;;;;;2.24;78.76;98789.95;25141;1316;3029307;-77
2022/02/08 16:58:50;;;;;;;19.90;11.40;;;;;;;2.01;79.48;98795.64;25156;1315;3049720;-77
2022/02/08 17:01:23;;;;;;;22.40;13.30;;;;;;;1.76;80.28;98798.62;25162;1316;3053524;-79
2022/02/08 17:03:52;;;;;;;18.50;11.50;;;;;;;1.45;81.26;98812.45;25258;1315;3055389;-78
2022/02/08 17:06:28;;;;;;;19.10;11.40;;;;;;;1.56;81.61;98810.36;25280;1315;3058466;-77
2022/02/08 17:09:06;;;;;;;14.30;8.90;;;;;;;2.12;79.88;98803.69;25269;1315;3026747;-77
2022/02/08 17:14:36;;;;;;;16.60;10.70;;;;;;;1.91;79.32;98818.64;25454;1315;3051222;-78
2022/02/08 17:18:01;;;;;;;18.60;11.80;;;;;;;1.59;80.05;98815.60;25237;1315;3069012;-77
2022/02/08 17:47:59;;;;;;;16.00;8.20;;;;;;;1.56;79.60;98819.31;25189;1316;3026275;-77
2022/02/08 17:50:28;;;;;;;16.80;8.10;;;;;;;1.32;80.48;98821.35;25171;1315;3030475;-77
2022/02/08 17:52:57;;;;;;;18.60;8.80;;;;;;;1.07;81.09;98823.18;25091;1315;3026746;-78
2022/02/08 17:55:29;;;;;;;11.60;6.80;;;;;;;1.03;81.73;98819.00;25232;1315;3050826;-77
2022/02/08 17:58:00;;;;;;;14.90;7.70;;;;;;;1.45;80.71;98825.91;25263;1315;3028112;-77
2022/02/08 18:00:32;;;;;;;15.10;7.50;;;;;;;1.65;79.96;98817.29;25715;1315;3025726;-78
2022/02/08 18:03:04;;;;;;;14.50;7.30;;;;;;;1.52;79.89;98837.58;25973;1315;3052109;-78
2022/02/08 18:05:34;;;;;;;13.20;8.00;;;;;;;1.38;80.29;98828.73;25869;1315;3025920;-77
2022/02/08 18:08:07;;;;;;;13.50;7.90;;;;;;;1.06;81.11;98836.52;25248;1316;3027580;-77
2022/02/08 18:10:37;;;;;;;;;;;;;;;0.94;81.75;98830.48;25173;1316;3048906;-78
2022/02/08 18:13:12;;;;;;;11.50;7.50;;;;;;;0.69;82.64;98829.20;25310;1315;3026956;-77
2022/02/08 18:16:02;;;;;;;14.30;8.20;;;;;;;1.15;82.31;98824.63;25162;1316;3068711;-78
2022/02/08 18:18:41;;;;;;;16.30;8.50;;;;;;;1.56;80.16;98834.50;25274;1316;3026745;-77
2022/02/08 18:21:31;;;;;;;13.20;7.80;;;;;;;1.39;80.10;98846.10;25209;1315;3051625;-77
2022/02/08 19:22:07;;;;;;;16.80;9.20;;;;;;;1.29;80.56;98879.77;25112;1315;3069054;-76
2022/02/08 19:24:36;;;;;;;17.90;10.40;;;;;;;1.72;78.96;98882.67;25076;1315;3026145;-77
2022/02/08 19:27:17;;;;;;;15.20;9.50;;;;;;;1.62;79.04;98886.96;25153;1315;3055334;-77
2022/02/08 19:29:46;;;;;;;15.80;8.80;;;;;;;1.42;79.40;98896.75;25255;1315;3027231;-76
2022/02/08 19:32:17;;;;;;;17.10;9.30;;;;;;;1.18;79.87;98889.95;25206;1315;3028571;-78
2022/02/08 19:34:48;;;;;;;20.00;10.00;;;;;;;0.99;80.71;98893.80;25257;1315;3028269;-78
2022/02/08 19:37:18;;;;;;;16.40;8.70;;;;;;;0.92;81.24;98906.94;25234;1315;3026829;-78
2022/02/08 19:39:48;;;;;;;15.50;7.80;;;;;;;1.42;80.28;98897.80;25135;1315;3055230;-78
2022/02/08 19:42:19;;;;;;;16.00;7.90;;;;;;;1.62;78.73;98898.88;25155;1315;3027516;-77
2022/02/08 19:44:57;;;;;;;16.10;9.20;;;;;;;1.64;78.25;98900.52;25143;1315;3026405;-78